sensor_id;sensor_type;location;lat;lon;timestamp;P1;durP1;ratioP1;P2;durP2;ratioP2
22205;SDS011;11272;50.104;8.754;2024-03-02T00:00:06;13.03;;;7.40;;
22205;SDS011;11272;50.104;8.754;2024-03-02T00:02:45;13.73;;;7.73;;
22205;SDS011;11272;50.104;8.754;2024-03-02T00:05:12;13.23;;;7.63;;
22205;SDS011;11272;50.104;8.754;2024-03-02T00:07:41;11.43;;;7.53;;
22205;SDS011;11272;50.104;8.754;2024-03-02T00:10:10;12.13;;;6.97;;
22205;SDS011;11272;50.104;8.754;2024-03-02T00:12:40;14.77;;;7.83;;
22205;SDS011;11272;50.104;8.754;2024-03-02T00:15:15;12.57;;;7.27;;
22205;SDS011;11272;50.104;8.754;2024-03-02T00:17:55;15.17;;;8.07;;
22205;SDS011;11272;50.104;8.754;2024-03-02T00:20:24;15.43;;;8.93;;
22205;SDS011;11272;50.104;8.754;2024-03-02T00:23:03;16.63;;;8.90;;
22205;SDS011;11272;50.104;8.754;2024-03-02T00:25:37;15.93;;;8.40;;
22205;SDS011;11272;50.104;8.754;2024-03-02T00:28:05;14.93;;;8.73;;
22205;SDS011;11272;50.104;8.754;2024-03-02T00:30:41;15.47;;;9.20;;
22205;SDS011;11272;50.104;8.754;2024-03-02T00:33:10;15.70;;;9.40;;
22205;SDS011;11272;50.104;8.754;2024-03-02T00:35:35;17.07;;;9.53;;
22205;SDS011;11272;50.104;8.754;2024-03-02T00:38:04;18.73;;;10.23;;
22205;SDS011;11272;50.104;8.754;2024-03-02T00:40:33;18.73;;;10.67;;
22205;SDS011;11272;50.104;8.754;2024-03-02T00:42:59;21.40;;;10.13;;
22205;SDS011;11272;50.104;8.754;2024-03-02T00:45:26;18.47;;;10.60;;
22205;SDS011;11272;50.104;8.754;2024-03-02T00:47:51;18.77;;;11.03;;
22205;SDS011;11272;50.104;8.754;2024-03-02T00:50:18;18.47;;;10.47;;
22205;SDS011;11272;50.104;8.754;2024-03-02T00:52:44;19.33;;;10.33;;
22205;SDS011;11272;50.104;8.754;2024-03-02T00:55:16;20.30;;;11.30;;
22205;SDS011;11272;50.104;8.754;2024-03-02T00:57:43;20.03;;;11.27;;
22205;SDS011;11272;50.104;8.754;2024-03-02T01:00:09;20.63;;;11.50;;
22205;SDS011;11272;50.104;8.754;2024-03-02T01:02:37;25.53;;;11.13;;
22205;SDS011;11272;50.104;8.754;2024-03-02T01:05:02;21.90;;;11.13;;
22205;SDS011;11272;50.104;8.754;2024-03-02T01:07:30;20.93;;;11.67;;
22205;SDS011;11272;50.104;8.754;2024-03-02T01:09:55;21.87;;;12.43;;
22205;SDS011;11272;50.104;8.754;2024-03-02T01:12:21;18.87;;;10.80;;
22205;SDS011;11272;50.104;8.754;2024-03-02T01:14:50;17.10;;;10.20;;
22205;SDS011;11272;50.104;8.754;2024-03-02T01:17:16;20.00;;;10.87;;
22205;SDS011;11272;50.104;8.754;2024-03-02T01:19:41;19.33;;;11.23;;
22205;SDS011;11272;50.104;8.754;2024-03-02T01:22:07;17.87;;;10.83;;
22205;SDS011;11272;50.104;8.754;2024-03-02T01:24:32;19.13;;;10.33;;
22205;SDS011;11272;50.104;8.754;2024-03-02T01:26:58;19.20;;;10.50;;
22205;SDS011;11272;50.104;8.754;2024-03-02T01:29:23;19.10;;;10.70;;
22205;SDS011;11272;50.104;8.754;2024-03-02T01:31:49;20.07;;;10.63;;
22205;SDS011;11272;50.104;8.754;2024-03-02T01:34:19;17.73;;;10.47;;
22205;SDS011;11272;50.104;8.754;2024-03-02T01:36:45;19.53;;;10.30;;
22205;SDS011;11272;50.104;8.754;2024-03-02T01:39:11;16.43;;;10.10;;
22205;SDS011;11272;50.104;8.754;2024-03-02T01:41:36;16.53;;;9.67;;
22205;SDS011;11272;50.104;8.754;2024-03-02T01:44:02;19.10;;;10.53;;
22205;SDS011;11272;50.104;8.754;2024-03-02T01:46:30;18.10;;;10.20;;
22205;SDS011;11272;50.104;8.754;2024-03-02T01:48:57;20.00;;;10.60;;
22205;SDS011;11272;50.104;8.754;2024-03-02T01:51:23;20.23;;;10.73;;
22205;SDS011;11272;50.104;8.754;2024-03-02T01:53:49;19.50;;;10.47;;
22205;SDS011;11272;50.104;8.754;2024-03-02T01:56:14;17.57;;;10.57;;
22205;SDS011;11272;50.104;8.754;2024-03-02T01:58:40;20.20;;;10.60;;
22205;SDS011;11272;50.104;8.754;2024-03-02T02:01:05;20.83;;;10.70;;
22205;SDS011;11272;50.104;8.754;2024-03-02T02:03:31;21.23;;;10.83;;
22205;SDS011;11272;50.104;8.754;2024-03-02T02:05:57;23.87;;;10.87;;
22205;SDS011;11272;50.104;8.754;2024-03-02T02:08:24;21.93;;;11.70;;
22205;SDS011;11272;50.104;8.754;2024-03-02T02:10:50;21.63;;;11.80;;
22205;SDS011;11272;50.104;8.754;2024-03-02T02:13:15;21.20;;;11.80;;
22205;SDS011;11272;50.104;8.754;2024-03-02T02:15:41;20.87;;;11.33;;
22205;SDS011;11272;50.104;8.754;2024-03-02T02:18:09;23.50;;;12.47;;
22205;SDS011;11272;50.104;8.754;2024-03-02T02:20:34;24.73;;;12.97;;
22205;SDS011;11272;50.104;8.754;2024-03-02T02:23:00;23.20;;;13.03;;
22205;SDS011;11272;50.104;8.754;2024-03-02T02:25:30;28.27;;;14.20;;
22205;SDS011;11272;50.104;8.754;2024-03-02T02:27:56;29.50;;;14.83;;
22205;SDS011;11272;50.104;8.754;2024-03-02T02:30:23;25.73;;;14.80;;
22205;SDS011;11272;50.104;8.754;2024-03-02T02:32:53;27.83;;;14.90;;
22205;SDS011;11272;50.104;8.754;2024-03-02T02:35:19;29.73;;;14.53;;
22205;SDS011;11272;50.104;8.754;2024-03-02T02:37:47;27.27;;;14.10;;
22205;SDS011;11272;50.104;8.754;2024-03-02T02:40:14;27.10;;;14.10;;
22205;SDS011;11272;50.104;8.754;2024-03-02T02:42:40;29.70;;;15.63;;
22205;SDS011;11272;50.104;8.754;2024-03-02T02:45:06;28.97;;;13.93;;
22205;SDS011;11272;50.104;8.754;2024-03-02T02:47:32;30.97;;;14.30;;
22205;SDS011;11272;50.104;8.754;2024-03-02T02:50:01;32.20;;;14.53;;
22205;SDS011;11272;50.104;8.754;2024-03-02T02:52:33;28.50;;;14.70;;
22205;SDS011;11272;50.104;8.754;2024-03-02T02:55:01;27.60;;;15.57;;
22205;SDS011;11272;50.104;8.754;2024-03-02T02:57:28;27.07;;;15.13;;
22205;SDS011;11272;50.104;8.754;2024-03-02T02:59:56;32.40;;;13.80;;
22205;SDS011;11272;50.104;8.754;2024-03-02T03:02:21;24.37;;;12.67;;
22205;SDS011;11272;50.104;8.754;2024-03-02T03:04:47;26.73;;;13.80;;
22205;SDS011;11272;50.104;8.754;2024-03-02T03:07:12;31.33;;;15.03;;
22205;SDS011;11272;50.104;8.754;2024-03-02T03:09:38;27.47;;;13.87;;
22205;SDS011;11272;50.104;8.754;2024-03-02T03:12:06;28.30;;;13.87;;
22205;SDS011;11272;50.104;8.754;2024-03-02T03:14:34;26.03;;;13.67;;
22205;SDS011;11272;50.104;8.754;2024-03-02T03:16:59;27.97;;;13.87;;
22205;SDS011;11272;50.104;8.754;2024-03-02T03:19:25;30.27;;;15.40;;
22205;SDS011;11272;50.104;8.754;2024-03-02T03:21:50;26.30;;;14.00;;
22205;SDS011;11272;50.104;8.754;2024-03-02T03:24:16;29.13;;;14.23;;
22205;SDS011;11272;50.104;8.754;2024-03-02T03:26:41;29.70;;;14.73;;
22205;SDS011;11272;50.104;8.754;2024-03-02T03:29:06;28.00;;;14.47;;
22205;SDS011;11272;50.104;8.754;2024-03-02T03:31:32;29.13;;;14.27;;
22205;SDS011;11272;50.104;8.754;2024-03-02T03:33:57;28.93;;;14.13;;
22205;SDS011;11272;50.104;8.754;2024-03-02T03:36:26;30.97;;;14.27;;
22205;SDS011;11272;50.104;8.754;2024-03-02T03:38:51;26.87;;;15.07;;
22205;SDS011;11272;50.104;8.754;2024-03-02T03:41:17;24.47;;;13.77;;
22205;SDS011;11272;50.104;8.754;2024-03-02T03:43:42;27.33;;;14.17;;
22205;SDS011;11272;50.104;8.754;2024-03-02T03:46:08;25.50;;;12.90;;
22205;SDS011;11272;50.104;8.754;2024-03-02T03:48:33;25.03;;;13.83;;
22205;SDS011;11272;50.104;8.754;2024-03-02T03:50:59;27.40;;;13.60;;
22205;SDS011;11272;50.104;8.754;2024-03-02T03:53:24;26.23;;;14.03;;
22205;SDS011;11272;50.104;8.754;2024-03-02T03:55:50;29.40;;;14.87;;
22205;SDS011;11272;50.104;8.754;2024-03-02T03:58:16;31.70;;;14.53;;
22205;SDS011;11272;50.104;8.754;2024-03-02T04:00:44;33.83;;;15.60;;
22205;SDS011;11272;50.104;8.754;2024-03-02T04:03:09;29.30;;;15.30;;
22205;SDS011;11272;50.104;8.754;2024-03-02T04:05:34;32.67;;;15.90;;
22205;SDS011;11272;50.104;8.754;2024-03-02T04:08:01;27.07;;;13.83;;
22205;SDS011;11272;50.104;8.754;2024-03-02T04:10:27;28.80;;;13.97;;
22205;SDS011;11272;50.104;8.754;2024-03-02T04:12:52;24.60;;;14.20;;
22205;SDS011;11272;50.104;8.754;2024-03-02T04:15:18;29.33;;;13.53;;
22205;SDS011;11272;50.104;8.754;2024-03-02T04:17:44;25.20;;;13.53;;
22205;SDS011;11272;50.104;8.754;2024-03-02T04:20:09;28.20;;;13.20;;
22205;SDS011;11272;50.104;8.754;2024-03-02T04:22:37;29.97;;;15.50;;
22205;SDS011;11272;50.104;8.754;2024-03-02T04:25:03;33.50;;;15.93;;
22205;SDS011;11272;50.104;8.754;2024-03-02T04:27:30;34.73;;;15.43;;
22205;SDS011;11272;50.104;8.754;2024-03-02T04:29:57;35.33;;;17.63;;
22205;SDS011;11272;50.104;8.754;2024-03-02T04:32:22;32.47;;;16.10;;
22205;SDS011;11272;50.104;8.754;2024-03-02T04:34:48;28.23;;;15.57;;
22205;SDS011;11272;50.104;8.754;2024-03-02T04:37:14;36.30;;;16.20;;
22205;SDS011;11272;50.104;8.754;2024-03-02T04:39:39;33.57;;;16.40;;
22205;SDS011;11272;50.104;8.754;2024-03-02T04:42:05;35.03;;;16.77;;
22205;SDS011;11272;50.104;8.754;2024-03-02T04:44:35;31.60;;;16.30;;
22205;SDS011;11272;50.104;8.754;2024-03-02T04:47:03;34.03;;;16.40;;
22205;SDS011;11272;50.104;8.754;2024-03-02T04:49:29;35.67;;;16.17;;
22205;SDS011;11272;50.104;8.754;2024-03-02T04:51:55;30.63;;;15.30;;
22205;SDS011;11272;50.104;8.754;2024-03-02T04:54:22;34.50;;;15.67;;
22205;SDS011;11272;50.104;8.754;2024-03-02T04:56:47;35.53;;;17.03;;
22205;SDS011;11272;50.104;8.754;2024-03-02T04:59:19;32.87;;;15.73;;
22205;SDS011;11272;50.104;8.754;2024-03-02T05:01:45;32.70;;;16.63;;
22205;SDS011;11272;50.104;8.754;2024-03-02T05:04:11;34.50;;;16.07;;
22205;SDS011;11272;50.104;8.754;2024-03-02T05:06:38;36.13;;;17.03;;
22205;SDS011;11272;50.104;8.754;2024-03-02T05:09:05;33.83;;;16.30;;
22205;SDS011;11272;50.104;8.754;2024-03-02T05:11:31;34.33;;;15.60;;
22205;SDS011;11272;50.104;8.754;2024-03-02T05:14:03;37.37;;;16.57;;
22205;SDS011;11272;50.104;8.754;2024-03-02T05:16:29;34.80;;;16.60;;
22205;SDS011;11272;50.104;8.754;2024-03-02T05:18:54;35.90;;;17.10;;
22205;SDS011;11272;50.104;8.754;2024-03-02T05:21:22;40.80;;;18.40;;
22205;SDS011;11272;50.104;8.754;2024-03-02T05:23:48;39.70;;;18.43;;
22205;SDS011;11272;50.104;8.754;2024-03-02T05:26:17;38.47;;;17.60;;
22205;SDS011;11272;50.104;8.754;2024-03-02T05:28:43;42.70;;;17.67;;
22205;SDS011;11272;50.104;8.754;2024-03-02T05:31:12;39.10;;;18.57;;
22205;SDS011;11272;50.104;8.754;2024-03-02T05:33:40;39.63;;;17.43;;
22205;SDS011;11272;50.104;8.754;2024-03-02T05:36:06;40.93;;;16.97;;
22205;SDS011;11272;50.104;8.754;2024-03-02T05:38:34;41.03;;;17.63;;
22205;SDS011;11272;50.104;8.754;2024-03-02T05:41:00;38.77;;;17.27;;
22205;SDS011;11272;50.104;8.754;2024-03-02T05:43:25;43.27;;;17.10;;
22205;SDS011;11272;50.104;8.754;2024-03-02T05:45:51;39.33;;;17.23;;
22205;SDS011;11272;50.104;8.754;2024-03-02T05:48:16;43.53;;;16.57;;
22205;SDS011;11272;50.104;8.754;2024-03-02T05:50:42;32.90;;;17.50;;
22205;SDS011;11272;50.104;8.754;2024-03-02T05:53:07;38.00;;;16.57;;
22205;SDS011;11272;50.104;8.754;2024-03-02T05:55:33;41.17;;;16.83;;
22205;SDS011;11272;50.104;8.754;2024-03-02T05:57:58;43.40;;;17.03;;
22205;SDS011;11272;50.104;8.754;2024-03-02T06:00:42;36.57;;;16.87;;
22205;SDS011;11272;50.104;8.754;2024-03-02T06:03:08;31.53;;;15.37;;
22205;SDS011;11272;50.104;8.754;2024-03-02T06:05:34;36.60;;;16.07;;
22205;SDS011;11272;50.104;8.754;2024-03-02T06:08:00;35.33;;;16.87;;
22205;SDS011;11272;50.104;8.754;2024-03-02T06:10:25;33.93;;;16.07;;
22205;SDS011;11272;50.104;8.754;2024-03-02T06:12:51;41.17;;;17.50;;
22205;SDS011;11272;50.104;8.754;2024-03-02T06:15:16;37.63;;;17.30;;
22205;SDS011;11272;50.104;8.754;2024-03-02T06:17:42;40.67;;;18.13;;
22205;SDS011;11272;50.104;8.754;2024-03-02T06:20:09;41.40;;;17.80;;
22205;SDS011;11272;50.104;8.754;2024-03-02T06:22:35;40.17;;;17.93;;
22205;SDS011;11272;50.104;8.754;2024-03-02T06:25:00;38.80;;;16.77;;
22205;SDS011;11272;50.104;8.754;2024-03-02T06:27:26;33.70;;;16.20;;
22205;SDS011;11272;50.104;8.754;2024-03-02T06:29:51;37.03;;;17.23;;
22205;SDS011;11272;50.104;8.754;2024-03-02T06:32:17;44.20;;;17.60;;
22205;SDS011;11272;50.104;8.754;2024-03-02T06:34:43;38.23;;;17.73;;
22205;SDS011;11272;50.104;8.754;2024-03-02T06:37:08;40.83;;;18.10;;
22205;SDS011;11272;50.104;8.754;2024-03-02T06:39:33;40.77;;;17.47;;
22205;SDS011;11272;50.104;8.754;2024-03-02T06:41:59;44.57;;;18.17;;
22205;SDS011;11272;50.104;8.754;2024-03-02T06:44:25;37.73;;;17.80;;
22205;SDS011;11272;50.104;8.754;2024-03-02T06:46:51;38.77;;;17.40;;
22205;SDS011;11272;50.104;8.754;2024-03-02T06:49:17;35.57;;;17.80;;
22205;SDS011;11272;50.104;8.754;2024-03-02T06:51:43;39.13;;;18.87;;
22205;SDS011;11272;50.104;8.754;2024-03-02T06:54:09;37.57;;;17.53;;
22205;SDS011;11272;50.104;8.754;2024-03-02T06:56:35;38.27;;;17.17;;
22205;SDS011;11272;50.104;8.754;2024-03-02T06:59:00;36.90;;;18.47;;
22205;SDS011;11272;50.104;8.754;2024-03-02T07:01:26;40.27;;;18.77;;
22205;SDS011;11272;50.104;8.754;2024-03-02T07:03:53;38.27;;;19.30;;
22205;SDS011;11272;50.104;8.754;2024-03-02T07:06:19;45.07;;;20.10;;
22205;SDS011;11272;50.104;8.754;2024-03-02T07:08:45;38.40;;;18.30;;
22205;SDS011;11272;50.104;8.754;2024-03-02T07:11:10;40.07;;;18.63;;
22205;SDS011;11272;50.104;8.754;2024-03-02T07:13:36;45.67;;;20.47;;
22205;SDS011;11272;50.104;8.754;2024-03-02T07:16:01;46.00;;;20.33;;
22205;SDS011;11272;50.104;8.754;2024-03-02T07:18:36;41.27;;;19.43;;
22205;SDS011;11272;50.104;8.754;2024-03-02T07:21:07;44.57;;;20.47;;
22205;SDS011;11272;50.104;8.754;2024-03-02T07:23:32;45.47;;;18.80;;
22205;SDS011;11272;50.104;8.754;2024-03-02T07:25:59;38.30;;;19.83;;
22205;SDS011;11272;50.104;8.754;2024-03-02T07:28:26;42.87;;;18.27;;
22205;SDS011;11272;50.104;8.754;2024-03-02T07:30:59;37.73;;;19.30;;
22205;SDS011;11272;50.104;8.754;2024-03-02T07:33:25;39.57;;;17.90;;
22205;SDS011;11272;50.104;8.754;2024-03-02T07:35:56;38.30;;;18.67;;
22205;SDS011;11272;50.104;8.754;2024-03-02T07:38:23;34.47;;;17.03;;
22205;SDS011;11272;50.104;8.754;2024-03-02T07:40:49;35.47;;;17.47;;
22205;SDS011;11272;50.104;8.754;2024-03-02T07:43:21;31.77;;;16.53;;
22205;SDS011;11272;50.104;8.754;2024-03-02T07:45:49;30.57;;;15.90;;
22205;SDS011;11272;50.104;8.754;2024-03-02T07:48:15;37.80;;;16.60;;
22205;SDS011;11272;50.104;8.754;2024-03-02T07:50:40;32.40;;;15.97;;
22205;SDS011;11272;50.104;8.754;2024-03-02T07:53:06;34.77;;;16.40;;
22205;SDS011;11272;50.104;8.754;2024-03-02T07:55:35;32.10;;;15.27;;
22205;SDS011;11272;50.104;8.754;2024-03-02T07:58:00;32.23;;;16.33;;
22205;SDS011;11272;50.104;8.754;2024-03-02T08:00:26;32.73;;;16.17;;
22205;SDS011;11272;50.104;8.754;2024-03-02T08:02:52;33.73;;;15.47;;
22205;SDS011;11272;50.104;8.754;2024-03-02T08:05:18;33.50;;;16.03;;
22205;SDS011;11272;50.104;8.754;2024-03-02T08:07:44;33.33;;;16.47;;
22205;SDS011;11272;50.104;8.754;2024-03-02T08:10:11;37.63;;;16.27;;
22205;SDS011;11272;50.104;8.754;2024-03-02T08:12:36;27.80;;;14.90;;
22205;SDS011;11272;50.104;8.754;2024-03-02T08:15:02;23.83;;;13.63;;
22205;SDS011;11272;50.104;8.754;2024-03-02T08:17:28;20.43;;;12.37;;
22205;SDS011;11272;50.104;8.754;2024-03-02T08:19:53;22.23;;;12.33;;
22205;SDS011;11272;50.104;8.754;2024-03-02T08:22:19;20.37;;;12.33;;
22205;SDS011;11272;50.104;8.754;2024-03-02T08:24:45;18.43;;;10.83;;
22205;SDS011;11272;50.104;8.754;2024-03-02T08:27:11;22.87;;;11.47;;
22205;SDS011;11272;50.104;8.754;2024-03-02T08:29:37;17.77;;;10.63;;
22205;SDS011;11272;50.104;8.754;2024-03-02T08:32:03;21.20;;;11.07;;
22205;SDS011;11272;50.104;8.754;2024-03-02T08:34:30;20.80;;;11.00;;
22205;SDS011;11272;50.104;8.754;2024-03-02T08:36:55;20.47;;;11.40;;
22205;SDS011;11272;50.104;8.754;2024-03-02T08:39:21;20.43;;;11.50;;
22205;SDS011;11272;50.104;8.754;2024-03-02T08:41:49;17.73;;;9.97;;
22205;SDS011;11272;50.104;8.754;2024-03-02T08:44:15;18.83;;;11.20;;
22205;SDS011;11272;50.104;8.754;2024-03-02T08:46:43;18.27;;;10.70;;
22205;SDS011;11272;50.104;8.754;2024-03-02T08:49:10;20.13;;;11.50;;
22205;SDS011;11272;50.104;8.754;2024-03-02T08:51:35;21.77;;;11.47;;
22205;SDS011;11272;50.104;8.754;2024-03-02T08:54:01;19.83;;;11.17;;
22205;SDS011;11272;50.104;8.754;2024-03-02T08:56:27;19.17;;;11.27;;
22205;SDS011;11272;50.104;8.754;2024-03-02T08:58:52;19.70;;;10.97;;
22205;SDS011;11272;50.104;8.754;2024-03-02T09:01:18;20.73;;;11.63;;
22205;SDS011;11272;50.104;8.754;2024-03-02T09:03:49;21.67;;;10.80;;
22205;SDS011;11272;50.104;8.754;2024-03-02T09:06:15;20.80;;;11.40;;
22205;SDS011;11272;50.104;8.754;2024-03-02T09:08:44;20.67;;;10.63;;
22205;SDS011;11272;50.104;8.754;2024-03-02T09:11:10;17.37;;;11.07;;
22205;SDS011;11272;50.104;8.754;2024-03-02T09:13:36;18.90;;;11.00;;
22205;SDS011;11272;50.104;8.754;2024-03-02T09:16:03;15.97;;;10.07;;
22205;SDS011;11272;50.104;8.754;2024-03-02T09:18:30;19.57;;;10.70;;
22205;SDS011;11272;50.104;8.754;2024-03-02T09:20:56;17.57;;;10.50;;
22205;SDS011;11272;50.104;8.754;2024-03-02T09:23:21;17.23;;;10.67;;
22205;SDS011;11272;50.104;8.754;2024-03-02T09:25:47;18.37;;;10.30;;
22205;SDS011;11272;50.104;8.754;2024-03-02T09:28:13;17.27;;;9.67;;
22205;SDS011;11272;50.104;8.754;2024-03-02T09:30:40;17.40;;;9.90;;
22205;SDS011;11272;50.104;8.754;2024-03-02T09:33:08;16.83;;;10.00;;
22205;SDS011;11272;50.104;8.754;2024-03-02T09:35:34;16.97;;;10.17;;
22205;SDS011;11272;50.104;8.754;2024-03-02T09:38:02;19.03;;;10.27;;
22205;SDS011;11272;50.104;8.754;2024-03-02T09:40:28;16.27;;;9.93;;
22205;SDS011;11272;50.104;8.754;2024-03-02T09:42:54;17.20;;;9.87;;
22205;SDS011;11272;50.104;8.754;2024-03-02T09:45:22;18.80;;;9.83;;
22205;SDS011;11272;50.104;8.754;2024-03-02T09:47:49;16.60;;;9.57;;
22205;SDS011;11272;50.104;8.754;2024-03-02T09:50:14;15.80;;;9.20;;
22205;SDS011;11272;50.104;8.754;2024-03-02T09:52:42;15.60;;;9.30;;
22205;SDS011;11272;50.104;8.754;2024-03-02T09:55:08;16.43;;;9.47;;
22205;SDS011;11272;50.104;8.754;2024-03-02T09:57:34;15.70;;;9.00;;
22205;SDS011;11272;50.104;8.754;2024-03-02T10:00:00;15.30;;;9.13;;
22205;SDS011;11272;50.104;8.754;2024-03-02T10:02:26;13.73;;;8.67;;
22205;SDS011;11272;50.104;8.754;2024-03-02T10:04:51;16.57;;;9.20;;
22205;SDS011;11272;50.104;8.754;2024-03-02T10:07:17;14.10;;;9.43;;
22205;SDS011;11272;50.104;8.754;2024-03-02T10:09:45;16.30;;;8.50;;
22205;SDS011;11272;50.104;8.754;2024-03-02T10:12:12;17.43;;;8.90;;
22205;SDS011;11272;50.104;8.754;2024-03-02T10:14:39;15.93;;;9.47;;
22205;SDS011;11272;50.104;8.754;2024-03-02T10:17:09;12.73;;;8.10;;
22205;SDS011;11272;50.104;8.754;2024-03-02T10:19:36;12.97;;;7.90;;
22205;SDS011;11272;50.104;8.754;2024-03-02T10:22:02;12.60;;;7.97;;
22205;SDS011;11272;50.104;8.754;2024-03-02T10:24:41;13.20;;;8.87;;
22205;SDS011;11272;50.104;8.754;2024-03-02T10:27:14;13.53;;;8.50;;
22205;SDS011;11272;50.104;8.754;2024-03-02T10:29:51;13.40;;;8.70;;
22205;SDS011;11272;50.104;8.754;2024-03-02T10:32:17;13.17;;;8.97;;
22205;SDS011;11272;50.104;8.754;2024-03-02T10:34:44;12.47;;;8.10;;
22205;SDS011;11272;50.104;8.754;2024-03-02T10:37:11;13.17;;;8.30;;
22205;SDS011;11272;50.104;8.754;2024-03-02T10:39:37;13.80;;;8.43;;
22205;SDS011;11272;50.104;8.754;2024-03-02T10:42:08;10.60;;;7.67;;
22205;SDS011;11272;50.104;8.754;2024-03-02T10:44:37;12.73;;;8.13;;
22205;SDS011;11272;50.104;8.754;2024-03-02T10:47:04;12.43;;;8.27;;
22205;SDS011;11272;50.104;8.754;2024-03-02T10:49:31;12.80;;;8.37;;
22205;SDS011;11272;50.104;8.754;2024-03-02T10:52:00;11.73;;;7.80;;
22205;SDS011;11272;50.104;8.754;2024-03-02T10:54:28;11.33;;;7.40;;
22205;SDS011;11272;50.104;8.754;2024-03-02T10:57:01;9.97;;;7.53;;
22205;SDS011;11272;50.104;8.754;2024-03-02T11:01:59;10.80;;;7.53;;
22205;SDS011;11272;50.104;8.754;2024-03-02T11:04:26;9.47;;;7.20;;
22205;SDS011;11272;50.104;8.754;2024-03-02T11:07:06;8.47;;;6.20;;
22205;SDS011;11272;50.104;8.754;2024-03-02T11:09:34;11.30;;;6.90;;
22205;SDS011;11272;50.104;8.754;2024-03-02T11:12:03;9.37;;;7.40;;
22205;SDS011;11272;50.104;8.754;2024-03-02T11:14:34;10.87;;;7.47;;
22205;SDS011;11272;50.104;8.754;2024-03-02T11:17:05;10.67;;;7.13;;
22205;SDS011;11272;50.104;8.754;2024-03-02T11:19:32;12.13;;;6.77;;
22205;SDS011;11272;50.104;8.754;2024-03-02T11:22:02;10.50;;;7.37;;
22205;SDS011;11272;50.104;8.754;2024-03-02T11:24:28;9.87;;;6.97;;
22205;SDS011;11272;50.104;8.754;2024-03-02T11:27:02;9.70;;;6.67;;
22205;SDS011;11272;50.104;8.754;2024-03-02T11:32:12;9.33;;;6.67;;
22205;SDS011;11272;50.104;8.754;2024-03-02T11:34:40;7.93;;;6.23;;
22205;SDS011;11272;50.104;8.754;2024-03-02T11:37:11;11.60;;;6.40;;
22205;SDS011;11272;50.104;8.754;2024-03-02T11:39:41;7.47;;;6.20;;
22205;SDS011;11272;50.104;8.754;2024-03-02T11:42:08;8.40;;;5.93;;
22205;SDS011;11272;50.104;8.754;2024-03-02T11:44:37;8.93;;;6.27;;
22205;SDS011;11272;50.104;8.754;2024-03-02T11:47:07;10.37;;;6.20;;
22205;SDS011;11272;50.104;8.754;2024-03-02T11:49:36;7.90;;;5.67;;
22205;SDS011;11272;50.104;8.754;2024-03-02T11:52:03;7.43;;;5.88;;
22205;SDS011;11272;50.104;8.754;2024-03-02T11:54:30;8.20;;;5.93;;
22205;SDS011;11272;50.104;8.754;2024-03-02T11:57:00;8.52;;;5.57;;
22205;SDS011;11272;50.104;8.754;2024-03-02T11:59:27;9.90;;;6.13;;
22205;SDS011;11272;50.104;8.754;2024-03-02T12:01:54;9.18;;;5.40;;
22205;SDS011;11272;50.104;8.754;2024-03-02T12:04:21;7.47;;;5.20;;
22205;SDS011;11272;50.104;8.754;2024-03-02T12:06:53;6.75;;;5.18;;
22205;SDS011;11272;50.104;8.754;2024-03-02T12:09:20;8.68;;;5.45;;
22205;SDS011;11272;50.104;8.754;2024-03-02T12:11:46;8.15;;;4.97;;
22205;SDS011;11272;50.104;8.754;2024-03-02T12:14:14;9.77;;;5.53;;
22205;SDS011;11272;50.104;8.754;2024-03-02T12:16:43;8.27;;;5.45;;
22205;SDS011;11272;50.104;8.754;2024-03-02T12:19:11;6.53;;;4.80;;
22205;SDS011;11272;50.104;8.754;2024-03-02T12:21:36;5.90;;;4.70;;
22205;SDS011;11272;50.104;8.754;2024-03-02T12:24:03;6.57;;;5.10;;
22205;SDS011;11272;50.104;8.754;2024-03-02T12:26:29;7.28;;;5.07;;
22205;SDS011;11272;50.104;8.754;2024-03-02T12:28:54;6.22;;;4.07;;
22205;SDS011;11272;50.104;8.754;2024-03-02T12:31:22;6.05;;;3.97;;
22205;SDS011;11272;50.104;8.754;2024-03-02T12:33:48;5.25;;;4.18;;
22205;SDS011;11272;50.104;8.754;2024-03-02T12:36:14;6.25;;;4.07;;
22205;SDS011;11272;50.104;8.754;2024-03-02T12:38:43;5.43;;;4.45;;
22205;SDS011;11272;50.104;8.754;2024-03-02T12:41:09;6.00;;;3.67;;
22205;SDS011;11272;50.104;8.754;2024-03-02T12:43:35;4.65;;;3.60;;
22205;SDS011;11272;50.104;8.754;2024-03-02T12:46:00;5.68;;;3.75;;
22205;SDS011;11272;50.104;8.754;2024-03-02T12:48:26;11.95;;;3.85;;
22205;SDS011;11272;50.104;8.754;2024-03-02T12:50:52;4.65;;;3.10;;
22205;SDS011;11272;50.104;8.754;2024-03-02T12:53:17;5.80;;;4.10;;
22205;SDS011;11272;50.104;8.754;2024-03-02T12:55:43;4.88;;;3.50;;
22205;SDS011;11272;50.104;8.754;2024-03-02T12:58:19;5.00;;;3.60;;
22205;SDS011;11272;50.104;8.754;2024-03-02T13:00:48;5.40;;;3.55;;
22205;SDS011;11272;50.104;8.754;2024-03-02T13:03:14;4.28;;;3.13;;
22205;SDS011;11272;50.104;8.754;2024-03-02T13:05:40;3.40;;;3.10;;
22205;SDS011;11272;50.104;8.754;2024-03-02T13:08:06;3.63;;;2.92;;
22205;SDS011;11272;50.104;8.754;2024-03-02T13:10:32;4.75;;;2.85;;
22205;SDS011;11272;50.104;8.754;2024-03-02T13:12:58;4.38;;;2.85;;
22205;SDS011;11272;50.104;8.754;2024-03-02T13:15:27;5.47;;;2.85;;
22205;SDS011;11272;50.104;8.754;2024-03-02T13:17:52;6.63;;;3.08;;
22205;SDS011;11272;50.104;8.754;2024-03-02T13:20:19;4.32;;;2.95;;
22205;SDS011;11272;50.104;8.754;2024-03-02T13:22:45;5.78;;;3.35;;
22205;SDS011;11272;50.104;8.754;2024-03-02T13:25:11;4.63;;;3.03;;
22205;SDS011;11272;50.104;8.754;2024-03-02T13:27:36;3.78;;;3.03;;
22205;SDS011;11272;50.104;8.754;2024-03-02T13:30:03;4.50;;;3.30;;
22205;SDS011;11272;50.104;8.754;2024-03-02T13:32:31;4.20;;;2.92;;
22205;SDS011;11272;50.104;8.754;2024-03-02T13:34:57;4.65;;;3.42;;
22205;SDS011;11272;50.104;8.754;2024-03-02T13:37:23;4.95;;;3.17;;
22205;SDS011;11272;50.104;8.754;2024-03-02T13:39:48;5.43;;;3.00;;
22205;SDS011;11272;50.104;8.754;2024-03-02T13:42:14;5.77;;;2.70;;
22205;SDS011;11272;50.104;8.754;2024-03-02T13:44:40;4.93;;;3.07;;
22205;SDS011;11272;50.104;8.754;2024-03-02T13:47:10;5.10;;;2.90;;
22205;SDS011;11272;50.104;8.754;2024-03-02T13:49:36;3.70;;;3.03;;
22205;SDS011;11272;50.104;8.754;2024-03-02T13:52:03;4.33;;;2.50;;
22205;SDS011;11272;50.104;8.754;2024-03-02T13:54:39;5.23;;;3.23;;
22205;SDS011;11272;50.104;8.754;2024-03-02T13:57:08;3.93;;;2.83;;
22205;SDS011;11272;50.104;8.754;2024-03-02T13:59:34;20.17;;;3.07;;
22205;SDS011;11272;50.104;8.754;2024-03-02T14:02:07;3.00;;;2.30;;
22205;SDS011;11272;50.104;8.754;2024-03-02T14:04:34;3.10;;;2.67;;
22205;SDS011;11272;50.104;8.754;2024-03-02T14:07:00;5.27;;;2.73;;
22205;SDS011;11272;50.104;8.754;2024-03-02T14:09:27;3.40;;;2.63;;
22205;SDS011;11272;50.104;8.754;2024-03-02T14:11:53;3.00;;;2.20;;
22205;SDS011;11272;50.104;8.754;2024-03-02T14:14:19;4.53;;;2.77;;
22205;SDS011;11272;50.104;8.754;2024-03-02T14:16:45;4.43;;;2.40;;
22205;SDS011;11272;50.104;8.754;2024-03-02T14:19:11;2.03;;;1.63;;
22205;SDS011;11272;50.104;8.754;2024-03-02T14:21:40;3.00;;;1.83;;
22205;SDS011;11272;50.104;8.754;2024-03-02T14:24:08;2.67;;;1.63;;
22205;SDS011;11272;50.104;8.754;2024-03-02T14:26:34;1.83;;;1.33;;
22205;SDS011;11272;50.104;8.754;2024-03-02T14:29:02;2.73;;;1.63;;
22205;SDS011;11272;50.104;8.754;2024-03-02T14:31:28;3.13;;;2.00;;